Terminal Aerodrome Forecast
Issued by NWS Blacksburg, VA

Home | Current Version | Previous Version | Text Only | Print | Product List | Glossary On
Versions: 1 2 3 4 5 6 7 8 9 10 11 12 13 14 15 16 17 18 19 20 21 22 23 24 25 26
000
FTUS41 KRNK 012341
TAFROA
TAF
KROA 012341Z 0200/0224 15007KT 6SM -RA BR OVC035
     FM020500 19008G16KT 4SM -RA BR SCT007 OVC015
      TEMPO 0205/0209 2SM -RA BR BKN007
     FM021400 27010G20KT P6SM OVC035
     FM021600 28023G35KT P6SM BKN035
     FM022100 29022G32KT P6SM SCT035=

USA.gov is the U.S. government's official web portal to all federal, state and local government web resources and services.